Terminal Aerodrome Forecast
Issued by NWS

Home | Current Version | Previous Version | Graphics & Text | Print | Product List | Glossary On
Versions: 1 2 3 4 5 6 7 8 9 10 11 12 13 14 15 16 17 18 19 20 21 22 23 24
131
FTUS43 KABR 070216 AAD
TAFMBG
TAF AMD
KMBG 070216Z 0702/0724 31026G38KT P6SM SCT020 OVC200
     FM071600 31019G28KT P6SM BKN025=

USA.gov is the U.S. government's official web portal to all federal, state and local government web resources and services.